Time;durP1;ratioP1;P1;durP2;ratioP2;P2;SDS_P1;SDS_P2;PMS_P1;PMS_P2;Temp;Humidity;BMP_temperature;BMP_pressure;BME280_temperature;BME280_humidity;BME280_pressure;Samples;Min_cycle;Max_cycle;Signal;HPM_P1;HPM_P2
2023/03/24 00:02:09;;;;;;;1.00;0.90;;;12.00;97.30;;;;;;5059949;28;20363;-81
2023/03/24 00:04:35;;;;;;;1.10;1.00;;;12.10;97.30;;;;;;5063814;28;20211;-82
2023/03/24 00:07:02;;;;;;;1.27;1.17;;;12.10;97.30;;;;;;5071779;28;20493;-82
2023/03/24 00:09:28;;;;;;;1.10;1.00;;;12.20;97.30;;;;;;5071289;28;20198;-81
2023/03/24 00:11:55;;;;;;;0.93;0.83;;;12.20;97.30;;;;;;5064468;28;20418;-83
2023/03/24 00:14:20;;;;;;;1.13;1.07;;;12.20;97.30;;;;;;5067383;28;20426;-80
2023/03/24 00:16:46;;;;;;;1.77;1.73;;;12.20;97.30;;;;;;5062318;28;20500;-81
2023/03/24 00:19:13;;;;;;;2.30;2.10;;;12.20;97.30;;;;;;5058205;28;20209;-80
2023/03/24 00:21:40;;;;;;;1.20;1.10;;;12.20;97.30;;;;;;5065501;28;20180;-81
2023/03/24 00:24:06;;;;;;;1.00;0.90;;;12.20;97.30;;;;;;5061736;28;20421;-83
2023/03/24 00:26:38;;;;;;;3.43;1.30;;;12.20;97.30;;;;;;5063274;28;20475;-81
2023/03/24 00:29:06;;;;;;;1.27;1.17;;;12.20;97.30;;;;;;5091833;28;20434;-81
2023/03/24 00:31:31;;;;;;;1.10;1.00;;;12.20;97.30;;;;;;5071439;28;20464;-82
2023/03/24 00:33:57;;;;;;;1.07;0.97;;;12.20;97.30;;;;;;5069575;28;20425;-81
2023/03/24 00:36:25;;;;;;;1.20;1.10;;;12.10;97.30;;;;;;5058774;28;20181;-84
2023/03/24 00:38:51;;;;;;;1.20;1.10;;;12.10;97.30;;;;;;5063790;28;20215;-80
2023/03/24 00:41:18;;;;;;;1.17;1.07;;;12.10;97.30;;;;;;5068324;28;20421;-82
2023/03/24 00:43:45;;;;;;;1.40;1.30;;;12.00;97.30;;;;;;5070992;28;20424;-83
2023/03/24 00:46:27;;;;;;;2.47;2.27;;;12.00;97.30;;;;;;5072331;28;20849;-84
2023/03/24 00:49:04;;;;;;;1.20;1.20;;;12.00;97.30;;;;;;5071374;28;20960;-82
2023/03/24 00:51:33;;;;;;;1.50;1.40;;;12.00;97.30;;;;;;5073045;28;20471;-81
2023/03/24 00:54:00;;;;;;;1.27;1.17;;;12.00;97.30;;;;;;5070682;28;20445;-84
2023/03/24 00:56:28;;;;;;;1.30;1.20;;;11.90;97.30;;;;;;5089853;28;21086;-82
2023/03/24 00:58:56;;;;;;;1.40;1.33;;;11.90;97.30;;;;;;5083632;28;20983;-83
2023/03/24 01:01:28;;;;;;;1.83;1.73;;;11.80;97.30;;;;;;5056800;28;20414;-81
2023/03/24 01:03:55;;;;;;;1.93;1.17;;;11.80;97.30;;;;;;5091501;28;20888;-83
2023/03/24 01:06:22;;;;;;;1.50;1.40;;;11.80;97.30;;;;;;5067011;28;20515;-82
2023/03/24 01:08:52;;;;;;;1.30;1.07;;;11.80;97.30;;;;;;5062624;28;20438;-82
2023/03/24 01:11:23;;;;;;;1.57;1.47;;;11.80;97.30;;;;;;5056246;28;20418;-80
2023/03/24 01:13:49;;;;;;;1.97;1.80;;;11.80;97.30;;;;;;5063870;28;20540;-81
2023/03/24 01:16:15;;;;;;;1.10;1.00;;;11.80;97.30;;;;;;5063086;28;20425;-82
2023/03/24 01:18:41;;;;;;;1.30;1.20;;;11.80;97.30;;;;;;5061198;28;20437;-81
2023/03/24 01:21:08;;;;;;;1.23;1.13;;;11.80;97.30;;;;;;5060136;28;20174;-81
2023/03/24 01:23:34;;;;;;;1.30;1.20;;;11.80;97.30;;;;;;5061866;28;20183;-82
2023/03/24 01:26:05;;;;;;;2.33;2.10;;;11.80;97.30;;;;;;5053070;28;20493;-82
2023/03/24 01:28:31;;;;;;;1.27;1.17;;;11.80;97.30;;;;;;5056029;28;20437;-81
2023/03/24 01:30:56;;;;;;;2.27;1.73;;;11.80;97.30;;;;;;5065968;28;20841;-81
2023/03/24 01:33:22;;;;;;;2.13;1.70;;;11.80;97.30;;;;;;5066889;28;20182;-81
2023/03/24 01:35:47;;;;;;;1.10;1.00;;;11.80;97.30;;;;;;5064198;28;20190;-81
2023/03/24 01:38:14;;;;;;;1.50;1.40;;;11.70;97.30;;;;;;5061511;28;20223;-83
2023/03/24 01:40:42;;;;;;;3.53;1.63;;;11.70;97.30;;;;;;5058401;28;20183;-80
2023/03/24 01:43:26;;;;;;;0.97;0.87;;;11.70;97.30;;;;;;5060462;28;20447;-84
2023/03/24 01:46:12;;;;;;;2.60;2.40;;;11.60;97.30;;;;;;5058505;28;20488;-81
2023/03/24 01:48:47;;;;;;;1.50;1.40;;;11.60;97.30;;;;;;5070061;28;20469;-80
2023/03/24 01:51:30;;;;;;;1.87;1.77;;;11.60;97.30;;;;;;5062624;28;20419;-83
2023/03/24 01:54:03;;;;;;;1.70;1.60;;;11.60;97.30;;;;;;5060123;28;20437;-82
2023/03/24 01:56:34;;;;;;;1.57;1.47;;;11.60;97.30;;;;;;5058133;28;20421;-80
2023/03/24 01:59:05;;;;;;;1.37;1.27;;;11.70;97.30;;;;;;5056070;28;20708;-84
2023/03/24 02:01:31;;;;;;;2.37;1.63;;;11.80;97.30;;;;;;5060587;28;20413;-80
2023/03/24 02:04:02;;;;;;;1.30;1.20;;;11.90;97.30;;;;;;5057969;28;20440;-81
2023/03/24 02:06:30;;;;;;;3.90;1.43;;;11.90;97.30;;;;;;5062193;28;20512;-82
2023/03/24 02:08:57;;;;;;;1.47;1.37;;;12.00;97.30;;;;;;5063116;28;20429;-80
2023/03/24 02:11:26;;;;;;;2.53;1.80;;;12.10;97.30;;;;;;5069510;28;20801;-81
2023/03/24 02:13:52;;;;;;;5.70;1.93;;;12.20;97.30;;;;;;5057319;28;20416;-79
2023/03/24 02:16:59;;;;;;;1.90;1.17;;;12.20;97.30;;;;;;5054816;28;20419;-80
2023/03/24 02:19:37;;;;;;;1.10;1.00;;;12.30;97.30;;;;;;5021176;28;20219;-81
2023/03/24 02:22:21;;;;;;;1.20;1.10;;;12.30;97.30;;;;;;5064894;28;21015;-81
2023/03/24 02:25:09;;;;;;;2.87;2.50;;;12.30;97.30;;;;;;5060303;28;20453;-80
2023/03/24 02:27:49;;;;;;;1.20;0.97;;;12.30;97.30;;;;;;5065667;28;20417;-82
2023/03/24 02:30:39;;;;;;;6.10;3.33;;;12.40;97.30;;;;;;5065727;28;20963;-83
2023/03/24 02:33:30;;;;;;;2.17;2.00;;;12.40;97.30;;;;;;5068110;28;20456;-80
2023/03/24 02:36:15;;;;;;;1.83;1.73;;;12.40;97.30;;;;;;5054383;28;20924;-81
2023/03/24 02:39:29;;;;;;;10.50;2.07;;;12.40;97.30;;;;;;5053213;28;20467;-80
2023/03/24 02:42:34;;;;;;;2.00;1.30;;;12.30;97.30;;;;;;5086234;28;20433;-79
2023/03/24 02:45:10;;;;;;;2.03;1.50;;;12.30;97.30;;;;;;5049838;28;20457;-79
2023/03/24 02:47:54;;;;;;;1.87;1.27;;;12.30;97.30;;;;;;5058128;28;20425;-80
2023/03/24 02:50:30;;;;;;;2.23;2.00;;;12.20;97.30;;;;;;5058585;28;20487;-81
2023/03/24 02:53:15;;;;;;;1.97;1.83;;;12.10;97.30;;;;;;5057730;28;20492;-84
2023/03/24 02:56:14;;;;;;;3.07;1.83;;;12.00;97.30;;;;;;5058447;28;20504;-81
2023/03/24 02:58:44;;;;;;;3.13;2.93;;;12.00;97.30;;;;;;5043705;28;20465;-80
2023/03/24 03:01:42;;;;;;;1.60;1.50;;;11.90;97.30;;;;;;5056040;28;20425;-81
2023/03/24 03:04:15;;;;;;;5.33;2.33;;;11.80;97.30;;;;;;5014379;28;20433;-82
2023/03/24 03:06:47;;;;;;;2.23;1.67;;;11.80;97.30;;;;;;5053493;28;20925;-81
2023/03/24 03:09:17;;;;;;;2.33;1.40;;;11.80;97.30;;;;;;5060988;28;20489;-80
2023/03/24 03:11:47;;;;;;;2.00;1.90;;;11.70;97.30;;;;;;5060248;28;20434;-81
2023/03/24 03:14:18;;;;;;;1.30;1.20;;;11.70;97.30;;;;;;5064975;28;20912;-81
2023/03/24 03:16:53;;;;;;;1.40;1.20;;;11.70;97.30;;;;;;5058715;28;20414;-81
2023/03/24 03:19:23;;;;;;;4.97;1.90;;;11.60;97.30;;;;;;5062657;28;20468;-84
2023/03/24 03:21:51;;;;;;;1.50;1.40;;;11.60;97.30;;;;;;5073002;28;20463;-81
2023/03/24 03:24:29;;;;;;;1.43;1.33;;;11.60;97.30;;;;;;5065005;28;20425;-80
2023/03/24 03:27:13;;;;;;;6.73;2.50;;;11.60;97.30;;;;;;5066039;28;20775;-83
2023/03/24 03:29:42;;;;;;;2.70;2.50;;;11.60;97.30;;;;;;5071658;28;20444;-80
2023/03/24 03:32:12;;;;;;;2.23;2.03;;;11.60;97.30;;;;;;5054341;28;20452;-81
2023/03/24 03:34:51;;;;;;;2.67;2.53;;;11.60;97.30;;;;;;5062905;28;20418;-81
2023/03/24 03:37:35;;;;;;;1.40;1.30;;;11.60;97.30;;;;;;5067131;28;20750;-82
2023/03/24 03:40:12;;;;;;;1.43;1.33;;;11.70;97.30;;;;;;5058574;28;20446;-85
2023/03/24 03:42:39;;;;;;;1.83;1.57;;;11.70;97.30;;;;;;5068340;28;20523;-81
2023/03/24 03:45:08;;;;;;;1.37;1.27;;;11.70;97.30;;;;;;5089571;28;20473;-82
2023/03/24 03:47:34;;;;;;;1.47;1.37;;;11.70;97.30;;;;;;5087987;28;20795;-80
2023/03/24 03:50:00;;;;;;;1.20;1.10;;;11.70;97.30;;;;;;5057031;28;20430;-80
2023/03/24 03:52:25;;;;;;;1.40;1.30;;;11.70;97.30;;;;;;5059463;28;20448;-82
2023/03/24 03:54:53;;;;;;;6.83;2.23;;;11.80;97.30;;;;;;5067001;28;20438;-80
2023/03/24 03:57:19;;;;;;;1.10;1.00;;;11.80;97.30;;;;;;5065365;28;20318;-80
2023/03/24 03:59:45;;;;;;;1.47;1.40;;;11.80;97.30;;;;;;5063631;28;20532;-83
2023/03/24 04:02:41;;;;;;;1.40;1.30;;;11.80;97.30;;;;;;5069089;28;20849;-80
2023/03/24 04:05:13;;;;;;;2.73;1.60;;;11.90;97.30;;;;;;5056054;28;20207;-81
2023/03/24 04:08:14;;;;;;;1.30;1.23;;;11.90;97.30;;;;;;5065535;28;20414;-85
2023/03/24 04:10:49;;;;;;;1.20;1.10;;;11.90;97.30;;;;;;5060719;28;20943;-81
2023/03/24 04:13:38;;;;;;;2.27;2.10;;;11.90;97.30;;;;;;5062729;28;20452;-82
2023/03/24 04:16:21;;;;;;;2.30;2.00;;;12.00;97.30;;;;;;5073115;28;20417;-80
2023/03/24 04:19:07;;;;;;;1.27;1.20;;;12.00;97.30;;;;;;5065648;28;20488;-80
2023/03/24 04:21:32;;;;;;;1.43;1.40;;;12.00;97.30;;;;;;5074703;28;20429;-81
2023/03/24 04:24:27;;;;;;;3.80;1.67;;;12.00;97.30;;;;;;5074151;28;20468;-81
2023/03/24 04:27:16;;;;;;;1.20;1.10;;;12.10;97.30;;;;;;5064025;28;20211;-81
2023/03/24 04:30:01;;;;;;;1.90;1.60;;;12.10;97.30;;;;;;5065741;28;20987;-83
2023/03/24 04:32:32;;;;;;;4.40;2.20;;;12.10;97.30;;;;;;5062200;28;20421;-83
2023/03/24 04:35:09;;;;;;;1.13;1.10;;;12.10;97.30;;;;;;5082250;28;20802;-82
2023/03/24 04:37:38;;;;;;;1.30;1.13;;;12.10;97.30;;;;;;5064035;28;20516;-81
2023/03/24 04:40:10;;;;;;;2.63;2.40;;;12.00;97.30;;;;;;5062768;28;20659;-83
2023/03/24 04:42:45;;;;;;;1.73;1.63;;;12.10;97.30;;;;;;5063796;28;20452;-80
2023/03/24 04:45:11;;;;;;;1.30;1.20;;;12.00;97.30;;;;;;5074811;28;20891;-80
2023/03/24 04:47:49;;;;;;;1.73;1.60;;;12.00;97.30;;;;;;5073495;28;20795;-81
2023/03/24 04:50:35;;;;;;;1.37;1.27;;;12.00;97.30;;;;;;5069776;28;20417;-80
2023/03/24 04:53:02;;;;;;;2.20;1.70;;;12.00;97.30;;;;;;5056264;28;20443;-83
2023/03/24 04:55:34;;;;;;;2.70;2.50;;;12.00;97.30;;;;;;5056660;28;20438;-81
2023/03/24 04:58:00;;;;;;;1.30;1.20;;;12.00;97.30;;;;;;5059505;28;20429;-80
2023/03/24 05:00:26;;;;;;;1.33;1.23;;;12.00;97.30;;;;;;5068337;28;20799;-84
2023/03/24 05:02:52;;;;;;;7.40;1.43;;;12.00;97.30;;;;;;5069239;28;20198;-81
2023/03/24 05:05:19;;;;;;;2.77;1.57;;;12.00;97.30;;;;;;5063676;28;20879;-85
2023/03/24 05:07:44;;;;;;;1.90;1.50;;;12.00;97.30;;;;;;5074171;28;20195;-83
2023/03/24 05:10:11;;;;;;;1.97;1.80;;;12.10;97.30;;;;;;5065706;28;20420;-83
2023/03/24 05:12:36;;;;;;;4.43;1.73;;;12.10;97.30;;;;;;5070485;28;20204;-82
2023/03/24 05:15:02;;;;;;;5.03;1.50;;;12.10;97.30;;;;;;5074377;28;20432;-83
2023/03/24 05:17:28;;;;;;;1.43;1.33;;;12.10;97.30;;;;;;5071356;28;20386;-82
2023/03/24 05:19:54;;;;;;;1.23;1.20;;;12.10;97.30;;;;;;5063309;28;20518;-83
2023/03/24 05:22:20;;;;;;;2.80;1.60;;;12.10;97.30;;;;;;5072069;28;20236;-83
2023/03/24 05:24:45;;;;;;;3.17;1.37;;;12.10;97.30;;;;;;5071266;28;20203;-84
2023/03/24 05:27:11;;;;;;;1.73;1.63;;;12.10;97.30;;;;;;5077017;28;20171;-82
2023/03/24 05:29:36;;;;;;;1.90;1.80;;;12.10;97.30;;;;;;5079782;28;20195;-82
2023/03/24 05:32:02;;;;;;;2.00;1.30;;;12.10;97.30;;;;;;5076951;28;20171;-82
2023/03/24 05:34:27;;;;;;;1.60;1.50;;;12.10;97.30;;;;;;5077372;28;20191;-81
2023/03/24 05:36:53;;;;;;;1.90;1.63;;;12.10;97.30;;;;;;5077765;28;20211;-82
2023/03/24 05:39:18;;;;;;;1.70;1.60;;;12.10;97.30;;;;;;5074943;28;20241;-83
2023/03/24 05:41:44;;;;;;;2.70;1.77;;;12.10;97.30;;;;;;5079572;28;20682;-81
2023/03/24 05:44:09;;;;;;;1.50;1.40;;;12.10;97.30;;;;;;5077297;28;20179;-82
2023/03/24 05:46:35;;;;;;;1.83;1.33;;;12.10;97.30;;;;;;5072227;28;20221;-81
2023/03/24 05:49:01;;;;;;;3.10;1.83;;;12.10;97.30;;;;;;5067256;28;20203;-81
2023/03/24 05:51:26;;;;;;;1.50;1.40;;;12.10;97.30;;;;;;5071305;28;20787;-81
2023/03/24 05:53:52;;;;;;;3.00;2.33;;;12.10;97.30;;;;;;5071763;28;20225;-81
2023/03/24 05:56:17;;;;;;;5.43;3.17;;;12.10;97.30;;;;;;5073121;28;20191;-80
2023/03/24 05:58:43;;;;;;;1.80;1.70;;;12.10;97.30;;;;;;5070326;28;20195;-84
2023/03/24 06:01:10;;;;;;;3.93;1.87;;;12.10;97.30;;;;;;5074768;28;20226;-80
2023/03/24 06:03:37;;;;;;;1.73;1.63;;;12.10;97.30;;;;;;5078401;28;20527;-83
2023/03/24 06:06:05;;;;;;;1.57;1.57;;;12.20;97.30;;;;;;5069943;28;20495;-80
2023/03/24 06:08:32;;;;;;;1.80;1.70;;;12.20;97.30;;;;;;5071738;28;20433;-82
2023/03/24 06:11:01;;;;;;;1.17;1.00;;;12.20;97.30;;;;;;5073320;28;20413;-81
2023/03/24 06:13:27;;;;;;;1.70;1.70;;;12.20;97.30;;;;;;5077254;28;20413;-84
2023/03/24 06:15:53;;;;;;;2.50;1.73;;;12.30;97.30;;;;;;5069803;28;20406;-84
2023/03/24 06:18:20;;;;;;;1.13;1.10;;;12.30;97.30;;;;;;5073930;28;20444;-83
2023/03/24 06:20:49;;;;;;;9.83;2.90;;;12.40;97.30;;;;;;5071166;28;20508;-85
2023/03/24 06:23:15;;;;;;;2.23;2.03;;;12.40;97.30;;;;;;5067458;28;20418;-82
2023/03/24 06:25:43;;;;;;;3.10;1.90;;;12.50;97.30;;;;;;5077408;28;20454;-85
2023/03/24 06:28:13;;;;;;;1.90;1.80;;;12.60;97.30;;;;;;5072201;28;20462;-83
2023/03/24 06:30:39;;;;;;;2.20;1.83;;;12.80;97.30;;;;;;5073183;28;20406;-80
2023/03/24 06:33:05;;;;;;;4.30;2.30;;;12.90;97.30;;;;;;5064087;28;20937;-81
2023/03/24 06:35:30;;;;;;;3.27;1.50;;;13.10;97.30;;;;;;5073006;28;20435;-82
2023/03/24 06:37:56;;;;;;;4.20;1.50;;;13.10;97.30;;;;;;5079498;28;20290;-82
2023/03/24 06:40:22;;;;;;;2.97;1.80;;;13.20;97.30;;;;;;5080056;28;20573;-85
2023/03/24 06:42:48;;;;;;;3.33;1.40;;;13.30;97.30;;;;;;5080045;28;20205;-84
2023/03/24 06:45:14;;;;;;;1.73;1.20;;;13.40;97.30;;;;;;5075546;28;20210;-82
2023/03/24 06:47:40;;;;;;;1.90;1.80;;;13.40;97.30;;;;;;5076632;28;20417;-82
2023/03/24 06:50:06;;;;;;;2.30;2.13;;;13.50;97.30;;;;;;5080427;28;20171;-86
2023/03/24 06:52:33;;;;;;;1.43;1.40;;;13.50;97.30;;;;;;5068483;28;20184;-81
2023/03/24 06:54:58;;;;;;;2.40;1.30;;;13.60;97.30;;;;;;5077317;28;20413;-82
2023/03/24 06:57:24;;;;;;;3.37;2.70;;;13.60;97.30;;;;;;5072204;28;20417;-84
2023/03/24 06:59:49;;;;;;;1.77;1.67;;;13.70;97.30;;;;;;5081405;28;20238;-85
2023/03/24 07:02:16;;;;;;;1.80;1.20;;;13.70;97.30;;;;;;5076310;28;20175;-82
2023/03/24 07:04:42;;;;;;;1.27;1.17;;;13.80;97.30;;;;;;5082860;28;20203;-86
2023/03/24 07:07:09;;;;;;;2.37;2.17;;;13.80;97.30;;;;;;5083516;28;20417;-84
2023/03/24 07:09:34;;;;;;;2.80;2.60;;;13.90;97.30;;;;;;5080827;28;20505;-86
2023/03/24 07:12:02;;;;;;;1.50;1.37;;;13.90;97.30;;;;;;5071500;28;20438;-86
2023/03/24 07:14:27;;;;;;;1.23;1.13;;;14.00;97.30;;;;;;5063962;28;20207;-87
2023/03/24 07:16:53;;;;;;;1.00;0.90;;;14.00;97.30;;;;;;5062252;28;20429;-85
2023/03/24 07:19:19;;;;;;;3.13;1.67;;;14.00;97.30;;;;;;5071374;28;20289;-85
2023/03/24 07:21:48;;;;;;;1.67;1.63;;;14.00;97.30;;;;;;5081735;28;20530;-85
2023/03/24 07:24:17;;;;;;;2.17;1.60;;;14.00;97.30;;;;;;5074508;28;20413;-86
2023/03/24 07:26:43;;;;;;;1.80;1.70;;;14.10;97.30;;;;;;5079897;28;20437;-81
2023/03/24 07:29:09;;;;;;;1.77;1.73;;;14.10;97.30;;;;;;5064337;28;20433;-84
2023/03/24 07:31:36;;;;;;;1.27;1.17;;;14.10;97.30;;;;;;5066690;28;21027;-85
2023/03/24 07:34:03;;;;;;;2.03;1.40;;;14.20;97.30;;;;;;5064035;28;20456;-86
2023/03/24 07:36:29;;;;;;;1.53;1.43;;;14.30;97.30;;;;;;5060842;28;20426;-84
2023/03/24 07:38:55;;;;;;;1.37;1.27;;;14.40;97.30;;;;;;5066912;28;20460;-85
2023/03/24 07:41:21;;;;;;;1.43;1.00;;;14.50;97.30;;;;;;5070340;28;20662;-85
2023/03/24 07:43:46;;;;;;;2.07;1.47;;;14.60;97.30;;;;;;5064173;28;20175;-85
2023/03/24 07:46:12;;;;;;;2.27;2.07;;;14.60;97.30;;;;;;5066324;28;20305;-86
2023/03/24 07:48:37;;;;;;;1.63;1.30;;;14.70;97.30;;;;;;5076138;28;20199;-84
2023/03/24 07:51:03;;;;;;;1.00;0.90;;;14.70;97.30;;;;;;5064010;28;20670;-85
2023/03/24 07:53:28;;;;;;;1.00;0.90;;;14.80;97.30;;;;;;5056869;28;20180;-84
2023/03/24 07:55:54;;;;;;;3.63;2.07;;;14.80;97.30;;;;;;5070492;28;20179;-84
2023/03/24 07:58:20;;;;;;;1.43;1.30;;;14.80;97.30;;;;;;5065070;28;20571;-85
2023/03/24 08:00:45;;;;;;;1.10;1.00;;;14.80;97.30;;;;;;5072918;28;20581;-84
2023/03/24 08:03:13;;;;;;;1.40;1.30;;;14.80;97.30;;;;;;5077275;28;20258;-84
2023/03/24 08:05:40;;;;;;;1.57;1.47;;;14.90;97.30;;;;;;5071602;28;20359;-86
2023/03/24 08:08:05;;;;;;;1.67;1.03;;;14.90;97.30;;;;;;5060407;28;20430;-86
2023/03/24 08:10:31;;;;;;;3.43;2.40;;;14.90;97.30;;;;;;5066015;28;20853;-86
2023/03/24 08:12:57;;;;;;;1.37;1.30;;;14.90;97.30;;;;;;5067877;28;20171;-83
2023/03/24 08:15:25;;;;;;;1.47;1.17;;;14.90;97.30;;;;;;5083933;28;20183;-84
2023/03/24 08:17:51;;;;;;;1.87;1.70;;;14.90;97.30;;;;;;5066061;28;20807;-87
2023/03/24 08:20:18;;;;;;;2.13;1.97;;;14.90;97.30;;;;;;5057343;28;20513;-86
2023/03/24 08:22:52;;;;;;;1.20;1.10;;;14.90;97.30;;;;;;5057340;28;20234;-87
2023/03/24 08:25:20;;;;;;;2.90;1.43;;;14.90;97.30;;;;;;5070457;28;20460;-86
2023/03/24 08:27:46;;;;;;;1.43;1.40;;;15.00;97.30;;;;;;5067315;28;20476;-86
2023/03/24 08:30:20;;;;;;;2.87;1.83;;;15.00;97.30;;;;;;5067222;28;20432;-86
2023/03/24 08:32:48;;;;;;;1.93;1.83;;;15.10;97.30;;;;;;5070360;28;20456;-86
2023/03/24 08:35:17;;;;;;;1.47;1.37;;;15.10;97.30;;;;;;5065154;28;20835;-86
2023/03/24 08:37:44;;;;;;;1.17;1.07;;;15.10;97.30;;;;;;5062563;28;20466;-87
2023/03/24 08:40:17;;;;;;;1.00;0.90;;;15.20;97.30;;;;;;5059016;28;20418;-87
2023/03/24 08:42:46;;;;;;;1.10;1.00;;;15.20;97.30;;;;;;5057188;28;20468;-87
2023/03/24 08:45:12;;;;;;;1.30;1.23;;;15.30;97.30;;;;;;5062341;28;20462;-87
2023/03/24 08:47:39;;;;;;;1.50;1.27;;;15.40;97.30;;;;;;5056404;28;20411;-86
2023/03/24 08:50:06;;;;;;;1.37;1.27;;;15.40;97.30;;;;;;5059247;28;20940;-86
2023/03/24 08:52:32;;;;;;;1.10;1.00;;;15.40;97.30;;;;;;5066651;28;20742;-87
2023/03/24 08:55:06;;;;;;;1.37;1.20;;;15.50;97.30;;;;;;5064453;28;20795;-85
2023/03/24 08:57:35;;;;;;;1.07;0.97;;;15.50;97.30;;;;;;5063346;28;20417;-87
2023/03/24 09:00:15;;;;;;;1.10;1.00;;;15.60;97.30;;;;;;5070381;28;20422;-87
2023/03/24 09:03:05;;;;;;;1.07;0.97;;;15.60;97.30;;;;;;5054656;28;20429;-86
2023/03/24 09:05:34;;;;;;;1.00;0.90;;;15.70;97.30;;;;;;4988808;28;20471;-87
2023/03/24 09:08:06;;;;;;;2.40;2.10;;;16.00;97.30;;;;;;5008848;28;20437;-86
2023/03/24 09:10:35;;;;;;;1.40;1.30;;;16.20;97.30;;;;;;5007359;28;21011;-86
2023/03/24 09:13:14;;;;;;;1.33;1.23;;;16.40;97.30;;;;;;5009006;28;20839;-88
2023/03/24 09:15:47;;;;;;;1.50;1.40;;;16.40;97.10;;;;;;5012887;28;20424;-87
2023/03/24 09:18:13;;;;;;;1.33;1.23;;;16.40;97.10;;;;;;5051568;28;20431;-87
2023/03/24 09:20:39;;;;;;;1.37;1.27;;;16.60;97.30;;;;;;5056227;28;20419;-87
2023/03/24 09:23:04;;;;;;;1.30;1.20;;;16.50;96.70;;;;;;5069744;28;20763;-86
2023/03/24 09:25:30;;;;;;;1.03;0.93;;;16.50;96.60;;;;;;5069690;28;20207;-86
2023/03/24 09:27:56;;;;;;;1.40;1.30;;;16.40;96.50;;;;;;5060886;28;20203;-87
2023/03/24 09:30:22;;;;;;;1.00;0.90;;;16.30;97.00;;;;;;5057998;28;20180;-87
2023/03/24 09:32:47;;;;;;;1.57;1.47;;;16.30;96.90;;;;;;5058793;28;20422;-88
2023/03/24 09:35:14;;;;;;;1.33;1.23;;;16.30;96.80;;;;;;5069448;28;20564;-87
2023/03/24 09:37:42;;;;;;;1.10;1.03;;;16.40;96.70;;;;;;5054103;28;20281;-86
2023/03/24 09:40:20;;;;;;;1.17;1.03;;;16.50;96.90;;;;;;5054035;28;20437;-87
2023/03/24 09:42:52;;;;;;;2.80;1.63;;;16.60;96.70;;;;;;5063092;28;20475;-87
2023/03/24 09:45:21;;;;;;;0.90;0.90;;;16.60;96.00;;;;;;5054211;28;20468;-86
2023/03/24 09:48:00;;;;;;;2.30;1.57;;;16.60;96.20;;;;;;5062785;28;20441;-86
2023/03/24 09:50:52;;;;;;;0.97;0.93;;;16.50;95.80;;;;;;5035376;28;20425;-87
2023/03/24 09:53:31;;;;;;;0.90;0.80;;;16.70;96.00;;;;;;5029138;28;20477;-87
2023/03/24 09:56:00;;;;;;;1.67;1.43;;;17.00;95.70;;;;;;5037638;28;20527;-86
2023/03/24 09:58:30;;;;;;;0.90;0.90;;;17.20;95.50;;;;;;5053098;28;20440;-86
2023/03/24 10:00:55;;;;;;;1.10;1.00;;;17.50;94.10;;;;;;5067330;28;20583;-86
2023/03/24 10:03:22;;;;;;;1.63;1.40;;;17.50;94.00;;;;;;5057344;28;20887;-86
2023/03/24 10:06:03;;;;;;;1.20;1.10;;;17.50;94.00;;;;;;5057976;28;20202;-88
2023/03/24 10:08:41;;;;;;;0.90;0.80;;;17.40;94.10;;;;;;5053101;28;20913;-87
2023/03/24 10:11:15;;;;;;;0.77;0.70;;;17.20;94.00;;;;;;5060902;28;20428;-88
2023/03/24 10:14:03;;;;;;;3.40;1.40;;;17.10;93.90;;;;;;5068883;28;20417;-88
2023/03/24 10:16:43;;;;;;;1.00;0.90;;;17.00;94.10;;;;;;5061722;28;20477;-87
2023/03/24 10:19:20;;;;;;;1.00;0.90;;;16.80;93.80;;;;;;5058737;28;20437;-87
2023/03/24 10:22:08;;;;;;;1.10;1.00;;;16.70;94.20;;;;;;5059270;28;20422;-87
2023/03/24 10:24:44;;;;;;;1.13;1.07;;;16.70;94.30;;;;;;5060647;28;20418;-87
2023/03/24 10:27:30;;;;;;;1.73;1.27;;;16.70;94.90;;;;;;5062620;28;20445;-89
2023/03/24 10:30:27;;;;;;;1.23;1.13;;;16.70;95.00;;;;;;5061853;28;20423;-87
2023/03/24 10:32:53;;;;;;;2.80;2.03;;;16.70;94.70;;;;;;5049248;28;20418;-86
2023/03/24 10:35:32;;;;;;;1.20;1.10;;;16.80;94.10;;;;;;5045470;28;20472;-87
2023/03/24 10:37:59;;;;;;;1.47;1.37;;;17.00;94.50;;;;;;5043111;28;20753;-86
2023/03/24 10:40:32;;;;;;;1.37;1.30;;;17.20;94.30;;;;;;5043561;28;20851;-87
2023/03/24 10:43:00;;;;;;;1.30;1.20;;;17.40;93.70;;;;;;5061076;28;20433;-86
2023/03/24 10:45:31;;;;;;;1.17;1.07;;;17.50;92.30;;;;;;5067877;28;20461;-86
2023/03/24 10:51:35;;;;;;;1.10;0.97;;;17.40;92.20;;;;;;5053209;28;20426;-86
2023/03/24 10:54:46;;;;;;;;;;;;;;;;;;;;;
2023/03/24 10:58:14;;;;;;;1.33;1.23;;;17.30;92.10;;;;;;5062221;28;20427;-86
2023/03/24 11:00:28;;;;;;;1.10;1.00;;;17.30;92.20;;;;;;5055363;28;20489;-87
2023/03/24 11:03:16;;;;;;;0.97;0.87;;;17.20;92.40;;;;;;5059842;28;20417;-86
2023/03/24 11:05:45;;;;;;;1.20;1.20;;;17.10;92.70;;;;;;5064583;28;20519;-86
2023/03/24 11:08:34;;;;;;;1.00;0.90;;;17.00;92.90;;;;;;5069028;28;20433;-85
2023/03/24 11:11:35;;;;;;;0.90;0.80;;;16.70;88.80;;;;;;5068705;28;20987;-86
2023/03/24 11:14:24;;;;;;;0.90;0.80;;;16.20;87.80;;;;;;5065777;28;20558;-86
2023/03/24 11:17:01;;;;;;;0.83;0.77;;;15.90;88.70;;;;;;5063839;28;20425;-86
2023/03/24 11:19:26;;;;;;;1.30;1.20;;;15.70;88.80;;;;;;5060962;28;20448;-86
2023/03/24 11:22:04;;;;;;;0.90;0.80;;;15.50;89.20;;;;;;5059540;28;20438;-86
2023/03/24 11:24:38;;;;;;;2.50;1.10;;;15.40;89.40;;;;;;5062550;28;20657;-87
2023/03/24 11:27:04;;;;;;;1.27;1.17;;;15.30;89.60;;;;;;5067975;28;20508;-86
2023/03/24 11:29:32;;;;;;;1.00;0.90;;;15.20;90.40;;;;;;5085236;28;20498;-86
2023/03/24 11:32:00;;;;;;;13.30;1.00;;;15.20;90.50;;;;;;5059979;28;20410;-86
2023/03/24 11:34:37;;;;;;;0.90;0.80;;;15.10;90.90;;;;;;5084630;28;20427;-86
2023/03/24 11:37:07;;;;;;;0.90;0.80;;;15.00;90.70;;;;;;5070432;28;20883;-86
2023/03/24 11:39:33;;;;;;;3.03;1.17;;;15.00;91.10;;;;;;5086680;28;20475;-87
2023/03/24 11:42:03;;;;;;;1.00;0.90;;;15.00;91.70;;;;;;5056664;28;20509;-87
2023/03/24 11:44:37;;;;;;;1.23;1.13;;;15.00;91.80;;;;;;5060155;28;20426;-85
2023/03/24 11:47:11;;;;;;;1.10;1.00;;;15.00;91.40;;;;;;5069784;28;20919;-86
2023/03/24 11:49:42;;;;;;;2.00;1.00;;;14.90;91.10;;;;;;5063400;28;20472;-86
2023/03/24 11:52:20;;;;;;;1.00;0.90;;;14.90;91.20;;;;;;5058684;28;20422;-86
2023/03/24 11:54:46;;;;;;;0.90;0.80;;;14.90;91.90;;;;;;5060728;28;20459;-86
2023/03/24 11:57:17;;;;;;;1.13;1.00;;;14.80;92.90;;;;;;5068311;28;20447;-86
2023/03/24 11:59:56;;;;;;;0.90;0.80;;;14.70;93.50;;;;;;5054677;28;20693;-85
2023/03/24 12:02:50;;;;;;;1.67;0.93;;;14.70;93.50;;;;;;5057285;28;20425;-87
2023/03/24 12:05:46;;;;;;;0.90;0.80;;;14.50;94.00;;;;;;5063307;28;21036;-87
2023/03/24 12:08:30;;;;;;;0.93;0.83;;;14.40;94.20;;;;;;5058762;28;20816;-86
2023/03/24 12:11:10;;;;;;;2.20;2.00;;;14.20;94.90;;;;;;5069935;28;20414;-86
2023/03/24 12:13:41;;;;;;;1.37;1.27;;;14.20;95.30;;;;;;5057730;28;20468;-86
2023/03/24 12:16:25;;;;;;;1.10;1.00;;;14.20;95.70;;;;;;5066951;28;20529;-86
2023/03/24 12:18:56;;;;;;;1.07;1.00;;;14.20;95.40;;;;;;5057104;28;20798;-86
2023/03/24 12:21:47;;;;;;;1.00;0.90;;;14.20;95.40;;;;;;5059803;28;20414;-86
2023/03/24 12:24:19;;;;;;;0.97;0.87;;;14.20;95.30;;;;;;5085044;28;20430;-86
2023/03/24 12:26:48;;;;;;;2.20;0.90;;;14.20;95.30;;;;;;5053184;28;20461;-86
2023/03/24 12:29:38;;;;;;;1.20;1.10;;;14.30;95.60;;;;;;5065316;28;20444;-84
2023/03/24 12:32:24;;;;;;;3.27;1.33;;;14.30;95.90;;;;;;5063663;28;20586;-85
2023/03/24 12:35:45;;;;;;;0.90;0.80;;;14.30;95.90;;;;;;5081645;28;20432;-86
2023/03/24 12:38:33;;;;;;;0.90;0.80;;;14.30;96.80;;;;;;5013010;28;20978;-86
2023/03/24 12:41:28;;;;;;;0.97;0.87;;;14.20;97.30;;;;;;5010292;28;20428;-86
2023/03/24 12:44:16;;;;;;;1.00;0.90;;;14.20;96.90;;;;;;5051479;28;20422;-86
2023/03/24 12:46:47;;;;;;;3.03;1.37;;;14.20;96.00;;;;;;5069663;28;20469;-86
2023/03/24 12:49:35;;;;;;;0.97;0.87;;;14.20;95.50;;;;;;5054286;28;20445;-85
2023/03/24 12:52:27;;;;;;;1.10;1.00;;;14.20;94.70;;;;;;5060811;28;20412;-86
2023/03/24 12:55:08;;;;;;;1.00;0.90;;;14.10;94.30;;;;;;5055419;28;20425;-86
2023/03/24 12:57:41;;;;;;;1.00;0.90;;;14.10;94.60;;;;;;5056827;28;20425;-86
2023/03/24 13:00:15;;;;;;;1.00;0.80;;;14.00;94.50;;;;;;5068926;28;20450;-86
2023/03/24 13:02:47;;;;;;;5.30;1.00;;;14.00;94.50;;;;;;5061765;28;20436;-86
2023/03/24 13:05:29;;;;;;;1.17;1.07;;;13.90;95.10;;;;;;5070021;28;20501;-86
2023/03/24 13:08:01;;;;;;;1.20;1.10;;;13.80;95.50;;;;;;5063287;28;20442;-86
2023/03/24 13:10:39;;;;;;;1.20;1.10;;;13.70;96.20;;;;;;5058522;28;20433;-86
2023/03/24 13:13:23;;;;;;;0.90;0.80;;;13.60;96.60;;;;;;5066893;28;20425;-86
2023/03/24 13:16:00;;;;;;;3.53;1.90;;;13.50;97.30;;;;;;5062026;28;20800;-85
2023/03/24 13:18:40;;;;;;;1.30;1.20;;;13.20;97.30;;;;;;5064713;28;20437;-86
2023/03/24 13:21:10;;;;;;;2.20;1.13;;;13.10;97.30;;;;;;5067382;28;20429;-86